Time;durP1;ratioP1;P1;durP2;ratioP2;P2;SDS_P1;SDS_P2;PMS_P1;PMS_P2;Temp;Humidity;BMP_temperature;BMP_pressure;BME280_temperature;BME280_humidity;BME280_pressure;Samples;Min_cycle;Max_cycle;Signal;HPM_P1;HPM_P2
2021/04/20 00:00:28;;;;;;;29.90;16.27;;;;;;;4.11;91.83;95544.28;5050569;28;20037;-67
2021/04/20 00:03:14;;;;;;;28.40;15.57;;;;;;;4.12;91.95;95551.06;5042722;28;20060;-67
2021/04/20 00:05:40;;;;;;;32.55;15.75;;;;;;;4.05;92.69;95549.59;5053235;28;20037;-67
2021/04/20 00:08:06;;;;;;;31.15;16.17;;;;;;;4.01;92.47;95548.44;5042972;28;20044;-67
2021/04/20 00:10:31;;;;;;;27.35;15.10;;;;;;;4.03;92.50;95542.00;5050986;28;20040;-68
2021/04/20 00:12:57;;;;;;;26.95;15.07;;;;;;;4.19;91.72;95543.13;5062337;28;20052;-68
2021/04/20 00:15:28;;;;;;;27.00;15.30;;;;;;;4.19;91.33;95539.72;5060007;28;20096;-68
2021/04/20 00:17:56;;;;;;;31.75;16.42;;;;;;;4.12;92.13;95539.84;5055091;28;20117;-66
2021/04/20 00:20:22;;;;;;;32.08;16.35;;;;;;;4.10;91.91;95541.91;5058665;28;20049;-68
2021/04/20 00:22:48;;;;;;;30.98;16.55;;;;;;;4.06;92.44;95535.56;5043052;28;20041;-68
2021/04/20 00:25:15;;;;;;;29.42;15.63;;;;;;;4.05;92.20;95533.97;5036485;28;20046;-68
2021/04/20 00:27:41;;;;;;;33.75;17.10;;;;;;;3.99;92.47;95540.88;5030850;28;20053;-69
2021/04/20 00:30:08;;;;;;;31.55;16.50;;;;;;;3.94;93.07;95533.72;5047791;28;20048;-67
2021/04/20 00:32:34;;;;;;;34.20;17.08;;;;;;;4.01;92.92;95532.81;5043677;28;20033;-67
2021/04/20 00:35:00;;;;;;;31.00;16.98;;;;;;;4.04;92.41;95529.75;5046805;28;20106;-68
2021/04/20 00:37:26;;;;;;;31.58;16.67;;;;;;;4.05;92.44;95528.75;5048553;28;20048;-66
2021/04/20 00:39:51;;;;;;;29.25;15.95;;;;;;;4.16;91.94;95520.13;5052894;28;20048;-68
2021/04/20 00:42:17;;;;;;;28.42;15.75;;;;;;;4.19;91.42;95524.09;5050588;28;20063;-67
2021/04/20 00:44:43;;;;;;;29.45;15.35;;;;;;;4.20;91.57;95526.47;5050334;28;20522;-66
2021/04/20 00:47:08;;;;;;;29.73;15.65;;;;;;;4.11;91.37;95518.22;5043924;28;20072;-68
2021/04/20 00:49:34;;;;;;;30.70;15.85;;;;;;;4.04;92.05;95517.56;5050891;28;20041;-66
2021/04/20 00:52:00;;;;;;;32.42;17.40;;;;;;;3.93;92.48;95521.72;5051292;28;20044;-68
2021/04/20 00:54:25;;;;;;;31.48;17.10;;;;;;;3.90;92.86;95519.59;5051709;28;20494;-66
2021/04/20 00:56:52;;;;;;;39.03;17.63;;;;;;;3.89;92.80;95515.38;5040957;28;20112;-66
2021/04/20 00:59:18;;;;;;;36.45;18.33;;;;;;;3.91;92.85;95515.97;5049272;28;20041;-67
2021/04/20 01:01:44;;;;;;;36.78;18.27;;;;;;;3.88;92.70;95519.03;5064979;28;20513;-68
2021/04/20 01:04:15;;;;;;;34.40;18.23;;;;;;;3.98;92.04;95523.69;5050520;28;20045;-68
2021/04/20 01:06:48;;;;;;;35.90;17.92;;;;;;;3.90;93.05;95516.97;5038089;28;20116;-69
2021/04/20 01:09:16;;;;;;;37.60;18.88;;;;;;;3.84;93.51;95511.91;5040808;28;20040;-68
2021/04/20 01:11:42;;;;;;;39.30;19.50;;;;;;;3.86;93.61;95510.63;5060760;28;20506;-67
2021/04/20 01:14:09;;;;;;;37.17;18.55;;;;;;;3.91;93.04;95517.78;5039901;28;20056;-68
2021/04/20 01:16:37;;;;;;;36.63;18.38;;;;;;;3.98;92.84;95508.84;5031392;28;20041;-68
2021/04/20 01:19:06;;;;;;;36.80;18.90;;;;;;;4.06;93.05;95506.91;5040601;28;20111;-68
2021/04/20 01:21:35;;;;;;;34.00;18.45;;;;;;;4.04;92.60;95516.75;5074110;28;20498;-68
2021/04/20 01:24:23;;;;;;;37.10;19.65;;;;;;;3.98;93.04;95514.03;5053735;28;20033;-67
2021/04/20 01:26:50;;;;;;;34.78;19.10;;;;;;;3.98;93.15;95521.84;5052570;28;20049;-68
2021/04/20 01:29:16;;;;;;;41.65;20.98;;;;;;;4.05;92.93;95513.13;5054016;28;20047;-68
2021/04/20 01:31:45;;;;;;;37.65;20.60;;;;;;;4.13;93.19;95518.00;5054038;28;20045;-69
2021/04/20 01:34:12;;;;;;;38.22;19.67;;;;;;;4.11;93.20;95514.84;5047319;28;20463;-68
2021/04/20 01:36:38;;;;;;;37.78;19.48;;;;;;;4.16;92.68;95509.72;5035712;28;20407;-69
2021/04/20 01:39:09;;;;;;;36.20;18.77;;;;;;;4.19;92.68;95514.47;5046658;28;20035;-68
2021/04/20 01:41:36;;;;;;;34.67;19.50;;;;;;;4.21;92.33;95517.66;5052370;28;20052;-68
2021/04/20 01:44:03;;;;;;;35.60;19.45;;;;;;;4.21;93.08;95516.84;5052905;28;20044;-66
2021/04/20 01:46:29;;;;;;;42.95;20.30;;;;;;;4.25;92.59;95513.56;5047481;28;20057;-67
2021/04/20 01:48:55;;;;;;;37.35;20.00;;;;;;;4.19;92.60;95514.47;5037116;28;20045;-66
2021/04/20 01:51:22;;;;;;;36.70;19.65;;;;;;;4.19;92.33;95519.69;5033895;28;20061;-67
2021/04/20 01:53:48;;;;;;;36.70;20.50;;;;;;;4.16;92.79;95520.13;5052284;28;20037;-68
2021/04/20 01:56:15;;;;;;;44.72;21.63;;;;;;;4.15;92.89;95511.53;5044531;28;20048;-66
2021/04/20 01:58:42;;;;;;;40.58;20.30;;;;;;;4.31;92.30;95511.84;5053149;28;20044;-68
2021/04/20 02:01:20;;;;;;;40.85;20.55;;;;;;;4.26;92.41;95517.75;5056407;28;20472;-68
2021/04/20 02:03:48;;;;;;;39.22;20.70;;;;;;;4.21;93.22;95512.44;5058574;28;20037;-67
2021/04/20 02:06:15;;;;;;;49.75;22.52;;;;;;;4.19;93.54;95511.88;5047228;28;20039;-67
2021/04/20 02:08:41;;;;;;;44.63;21.80;;;;;;;4.17;93.58;95506.09;5038245;28;20124;-68
2021/04/20 02:11:10;;;;;;;44.35;20.75;;;;;;;4.19;93.80;95511.88;5053925;28;20053;-68
2021/04/20 02:13:36;;;;;;;44.58;22.13;;;;;;;4.19;93.61;95514.47;5053332;28;20048;-68
2021/04/20 02:16:05;;;;;;;45.05;21.73;;;;;;;4.21;93.21;95515.06;5071732;28;20052;-68
2021/04/20 02:18:32;;;;;;;44.42;21.92;;;;;;;4.21;93.76;95511.63;5049199;28;20049;-70
2021/04/20 02:20:59;;;;;;;39.85;20.98;;;;;;;4.33;92.24;95509.81;5052836;28;20037;-69
2021/04/20 02:23:25;;;;;;;38.20;21.77;;;;;;;4.26;92.54;95515.13;5064731;28;20401;-71
2021/04/20 02:25:52;;;;;;;40.13;20.90;;;;;;;4.32;92.27;95514.25;5072821;28;20180;-67
2021/04/20 02:28:18;;;;;;;39.58;21.80;;;;;;;4.32;91.85;95514.25;5051286;28;20045;-68
2021/04/20 02:30:44;;;;;;;36.55;20.08;;;;;;;4.40;91.70;95515.69;5055185;28;20055;-67
2021/04/20 02:33:12;;;;;;;38.42;21.63;;;;;;;4.33;92.31;95510.59;5055077;28;20033;-68
2021/04/20 02:35:38;;;;;;;39.63;21.73;;;;;;;4.37;92.14;95510.13;5052309;28;20050;-68
2021/04/20 02:38:05;;;;;;;46.80;21.90;;;;;;;4.38;92.07;95511.72;5050228;28;20110;-67
2021/04/20 02:40:35;;;;;;;41.15;21.17;;;;;;;4.44;91.40;95510.78;5048020;28;20453;-68
2021/04/20 02:43:02;;;;;;;38.30;19.77;;;;;;;4.36;91.49;95508.56;5052004;28;20037;-69
2021/04/20 02:45:28;;;;;;;40.22;20.42;;;;;;;4.40;92.16;95509.69;5060339;28;20048;-67
2021/04/20 02:47:55;;;;;;;42.25;22.00;;;;;;;4.42;91.83;95512.84;5052627;28;20045;-68
2021/04/20 02:50:27;;;;;;;39.65;21.92;;;;;;;4.38;92.45;95506.50;5060031;28;20075;-68
2021/04/20 02:52:55;;;;;;;49.13;23.15;;;;;;;4.38;92.85;95507.28;5033497;28;20681;-67
2021/04/20 02:55:22;;;;;;;46.47;23.73;;;;;;;4.33;92.28;95510.59;5055705;28;20107;-68
2021/04/20 02:57:54;;;;;;;44.75;23.08;;;;;;;4.32;92.10;95509.03;5052314;28;20494;-67
2021/04/20 03:00:23;;;;;;;41.28;22.60;;;;;;;4.38;92.46;95506.50;5052164;28;20045;-67
2021/04/20 03:02:53;;;;;;;39.42;21.10;;;;;;;4.39;92.06;95502.91;5035206;28;20068;-67
2021/04/20 03:05:21;;;;;;;46.88;22.38;;;;;;;4.38;92.12;95501.31;5050581;28;20060;-68
2021/04/20 03:07:48;;;;;;;40.67;23.13;;;;;;;4.36;92.38;95498.94;5050786;28;20045;-68
2021/04/20 03:10:17;;;;;;;42.60;22.23;;;;;;;4.38;92.13;95501.31;5051987;28;20052;-67
2021/04/20 03:12:44;;;;;;;47.78;23.35;;;;;;;4.38;92.65;95501.31;5039529;28;20045;-67
2021/04/20 03:15:12;;;;;;;50.15;25.63;;;;;;;4.34;92.65;95499.16;5054810;28;20044;-68
2021/04/20 03:17:39;;;;;;;44.33;23.65;;;;;;;4.37;92.10;95499.72;5051310;28;20048;-68
2021/04/20 03:20:08;;;;;;;44.17;23.67;;;;;;;4.34;92.58;95506.97;5051257;28;20037;-68
2021/04/20 03:22:34;;;;;;;48.03;24.17;;;;;;;4.36;92.51;95498.16;5058415;28;20140;-67
2021/04/20 03:25:06;;;;;;;46.53;23.70;;;;;;;4.42;91.96;95505.03;5059884;28;20094;-68
2021/04/20 03:27:36;;;;;;;41.13;22.38;;;;;;;4.43;91.65;95496.22;5056733;28;20050;-68
2021/04/20 03:30:06;;;;;;;45.05;23.38;;;;;;;4.39;92.30;95500.28;5067232;28;20270;-68
2021/04/20 03:32:32;;;;;;;42.30;22.75;;;;;;;4.37;92.30;95494.50;5047022;28;20436;-67
2021/04/20 03:35:27;;;;;;;43.67;23.80;;;;;;;4.43;91.50;95501.41;5048215;28;20036;-67
2021/04/20 03:38:11;;;;;;;46.10;24.05;;;;;;;4.33;92.36;95500.19;5038964;28;20052;-67
2021/04/20 03:40:40;;;;;;;47.83;23.75;;;;;;;4.34;92.48;95491.34;5060814;28;20045;-67
2021/04/20 03:43:13;;;;;;;45.55;23.90;;;;;;;4.34;92.36;95486.13;5051491;28;20103;-67
2021/04/20 03:46:03;;;;;;;45.53;24.33;;;;;;;4.32;92.50;95482.97;5047743;28;20411;-67
2021/04/20 03:48:35;;;;;;;44.65;23.52;;;;;;;4.41;92.03;95490.41;5058018;28;20040;-68
2021/04/20 03:51:07;;;;;;;42.20;23.02;;;;;;;4.43;91.76;95491.78;5056406;28;20044;-67
2021/04/20 03:53:35;;;;;;;49.17;24.27;;;;;;;4.44;91.92;95489.94;5053772;28;20505;-68
2021/04/20 03:56:03;;;;;;;47.20;23.63;;;;;;;4.46;92.02;95487.94;5048838;28;20043;-67
2021/04/20 03:58:31;;;;;;;46.08;23.77;;;;;;;4.44;92.01;95484.75;5060156;28;20040;-68
2021/04/20 04:01:01;;;;;;;48.13;24.92;;;;;;;4.35;92.37;95494.72;5070707;28;20040;-67
2021/04/20 04:03:27;;;;;;;50.67;25.67;;;;;;;4.29;92.17;95488.63;5048793;28;20273;-67
2021/04/20 04:05:54;;;;;;;50.25;24.60;;;;;;;4.30;92.33;95487.59;5050513;28;20554;-67
2021/04/20 04:08:20;;;;;;;48.20;24.00;;;;;;;4.32;92.15;95492.59;5045454;28;20041;-67
2021/04/20 04:10:54;;;;;;;45.67;23.83;;;;;;;4.39;92.18;95497.69;5051033;28;20044;-67
2021/04/20 04:13:22;;;;;;;50.28;24.45;;;;;;;4.41;91.39;95493.84;5052224;28;20041;-67
2021/04/20 04:15:51;;;;;;;52.58;25.63;;;;;;;4.36;92.21;95487.72;5042212;28;20037;-67
2021/04/20 04:18:18;;;;;;;53.42;26.13;;;;;;;4.32;92.54;95493.41;5052135;28;20057;-67
2021/04/20 04:20:47;;;;;;;50.38;25.02;;;;;;;4.34;92.19;95488.75;5040000;28;20046;-67
2021/04/20 04:23:19;;;;;;;56.05;27.05;;;;;;;4.29;92.64;95488.63;5044453;28;20037;-66
2021/04/20 04:26:01;;;;;;;54.17;26.38;;;;;;;4.33;93.01;95489.75;5049261;28;20041;-67
2021/04/20 04:28:30;;;;;;;54.50;25.75;;;;;;;4.37;92.55;95499.72;5044442;28;20049;-67
2021/04/20 04:30:57;;;;;;;52.10;25.35;;;;;;;4.37;92.14;95499.72;5061478;28;20048;-66
2021/04/20 04:33:25;;;;;;;46.95;25.65;;;;;;;4.32;92.43;95492.59;5043655;28;20056;-67
2021/04/20 04:35:50;;;;;;;51.65;26.15;;;;;;;4.33;92.82;95499.41;5046114;28;20049;-67
2021/04/20 04:38:16;;;;;;;55.08;26.70;;;;;;;4.37;92.69;95499.72;5048228;28;20454;-67
2021/04/20 04:40:43;;;;;;;50.35;25.35;;;;;;;4.41;91.63;95500.84;5050925;28;20053;-67
2021/04/20 04:43:09;;;;;;;53.40;26.70;;;;;;;4.39;92.56;95497.69;5050711;28;20114;-68
2021/04/20 04:45:35;;;;;;;54.70;26.50;;;;;;;4.36;92.65;95498.16;5058359;28;20053;-67
2021/04/20 04:48:02;;;;;;;48.80;24.52;;;;;;;4.47;91.55;95502.53;5049745;28;20457;-67
2021/04/20 04:50:29;;;;;;;48.65;24.98;;;;;;;4.44;92.02;95506.41;5051370;28;20041;-68
2021/04/20 04:52:55;;;;;;;51.42;25.77;;;;;;;4.42;92.36;95507.66;5055568;28;20509;-68
2021/04/20 04:55:21;;;;;;;61.15;28.02;;;;;;;4.43;92.20;95509.25;5048022;28;20053;-67
2021/04/20 04:57:50;;;;;;;53.67;25.95;;;;;;;4.49;92.16;95508.31;5057293;28;20056;-67
2021/04/20 05:00:16;;;;;;;46.95;24.63;;;;;;;4.48;91.65;95511.94;5057025;28;20044;-67
2021/04/20 05:02:43;;;;;;;51.78;25.75;;;;;;;4.59;91.71;95508.50;5054617;28;20041;-67
2021/04/20 05:05:13;;;;;;;47.28;24.63;;;;;;;4.56;91.84;95518.63;5054336;28;20067;-67
2021/04/20 05:07:38;;;;;;;46.42;24.85;;;;;;;4.51;91.78;95511.47;5051913;28;20047;-67
2021/04/20 05:10:10;;;;;;;47.15;25.00;;;;;;;4.52;91.32;95515.66;5046060;28;20045;-66
2021/04/20 05:12:35;;;;;;;49.70;25.02;;;;;;;4.59;91.35;95518.94;5058804;28;20116;-67
2021/04/20 05:15:23;;;;;;;50.70;24.58;;;;;;;4.49;91.72;95514.31;5050983;28;20110;-68
2021/04/20 05:17:48;;;;;;;51.42;25.30;;;;;;;4.53;92.79;95524.28;5045208;28;20069;-67
2021/04/20 05:20:19;;;;;;;53.65;26.38;;;;;;;4.51;92.51;95517.47;5063490;28;20040;-67
2021/04/20 05:22:45;;;;;;;54.65;25.48;;;;;;;4.58;92.19;95522.56;5066569;28;20103;-66
2021/04/20 05:25:14;;;;;;;49.15;25.83;;;;;;;4.62;91.37;95518.47;5053734;28;20037;-67
2021/04/20 05:27:40;;;;;;;48.53;25.17;;;;;;;4.63;92.20;95520.06;5051962;28;20095;-67
2021/04/20 05:30:07;;;;;;;50.38;25.20;;;;;;;4.63;91.87;95514.84;5034099;28;20041;-66
2021/04/20 05:32:38;;;;;;;44.72;24.30;;;;;;;4.90;90.33;95513.50;5042168;28;20042;-66
2021/04/20 05:35:06;;;;;;;45.33;23.88;;;;;;;4.85;89.94;95509.00;5057788;28;20051;-68
2021/04/20 05:37:35;;;;;;;46.10;23.13;;;;;;;4.86;90.07;95513.97;5050496;28;20413;-67
2021/04/20 05:40:09;;;;;;;51.92;26.55;;;;;;;4.76;90.84;95518.22;5052905;28;20624;-68
2021/04/20 05:42:36;;;;;;;51.83;25.83;;;;;;;4.86;90.60;95513.19;5054456;28;20387;-68
2021/04/20 05:45:06;;;;;;;48.17;24.83;;;;;;;4.97;89.80;95512.34;5066579;28;20116;-68
2021/04/20 05:47:32;;;;;;;45.25;24.58;;;;;;;4.94;90.05;95509.41;5054491;28;20041;-68
2021/04/20 05:50:00;;;;;;;47.60;24.60;;;;;;;4.97;90.55;95507.13;5045221;28;20044;-68
2021/04/20 05:52:25;;;;;;;46.25;24.50;;;;;;;5.00;90.51;95509.28;5054069;28;20174;-67
2021/04/20 05:54:58;;;;;;;48.53;24.33;;;;;;;5.02;90.45;95503.81;5054377;28;20545;-66
2021/04/20 05:57:24;;;;;;;48.00;25.02;;;;;;;5.09;89.88;95511.50;5040603;28;20044;-68
2021/04/20 06:00:00;;;;;;;45.88;23.83;;;;;;;5.11;89.67;95510.22;5057143;28;20041;-68
2021/04/20 06:02:30;;;;;;;45.50;24.92;;;;;;;5.10;89.73;95507.84;5051207;28;20056;-68
2021/04/20 06:05:00;;;;;;;47.08;24.20;;;;;;;5.16;89.42;95512.16;5051459;28;20495;-67
2021/04/20 06:07:26;;;;;;;46.30;24.00;;;;;;;5.17;89.62;95508.50;5051567;28;20037;-68
2021/04/20 06:09:52;;;;;;;45.35;24.95;;;;;;;5.07;89.91;95516.16;5051812;28;20056;-67
2021/04/20 06:12:18;;;;;;;42.72;23.30;;;;;;;5.17;89.55;95521.56;5055936;28;20041;-67
2021/04/20 06:14:48;;;;;;;46.85;23.02;;;;;;;5.30;89.45;95523.88;5060606;28;20044;-68
2021/04/20 06:17:14;;;;;;;41.95;23.13;;;;;;;5.33;88.79;95520.81;5046129;28;20045;-68
2021/04/20 06:19:41;;;;;;;46.85;23.60;;;;;;;5.31;89.69;95530.66;5038990;28;20352;-68
2021/04/20 06:22:12;;;;;;;41.92;22.80;;;;;;;5.40;89.01;95527.69;5056266;28;20097;-66
2021/04/20 06:24:38;;;;;;;40.33;21.92;;;;;;;5.46;87.88;95531.94;5065352;28;20049;-68
2021/04/20 06:27:05;;;;;;;44.15;22.77;;;;;;;5.37;89.09;95529.75;5037938;28;20041;-67
2021/04/20 06:29:31;;;;;;;40.88;22.17;;;;;;;5.45;88.43;95527.78;5057281;28;20049;-67
2021/04/20 06:31:57;;;;;;;44.38;23.52;;;;;;;5.52;89.34;95533.63;5061430;28;20033;-68
2021/04/20 06:34:24;;;;;;;44.33;23.77;;;;;;;5.61;88.19;95539.25;5051379;28;20041;-67
2021/04/20 06:36:53;;;;;;;51.85;24.40;;;;;;;5.62;89.11;95538.25;5054610;28;20037;-66
2021/04/20 06:39:22;;;;;;;43.70;22.80;;;;;;;5.79;87.85;95546.84;5032901;28;20053;-67
2021/04/20 06:41:59;;;;;;;37.75;21.25;;;;;;;5.80;86.46;95547.63;5053025;28;20041;-68
2021/04/20 06:44:36;;;;;;;43.13;22.67;;;;;;;5.70;88.67;95549.06;5051103;28;20045;-68
2021/04/20 06:47:19;;;;;;;44.25;23.38;;;;;;;5.60;88.12;95556.72;5045044;28;20733;-67
2021/04/20 06:50:06;;;;;;;39.35;22.30;;;;;;;5.62;88.23;95552.06;5057474;28;20071;-67
2021/04/20 06:52:52;;;;;;;37.17;21.17;;;;;;;5.59;87.94;95557.78;5059358;28;20087;-68
2021/04/20 06:55:40;;;;;;;40.85;22.00;;;;;;;5.54;88.67;95560.28;5036980;28;20049;-67
2021/04/20 06:58:48;;;;;;;42.45;21.88;;;;;;;5.54;88.31;95561.06;5048378;28;20049;-67
2021/04/20 07:01:29;;;;;;;36.50;20.52;;;;;;;5.56;87.54;95566.06;5051341;28;20052;-69
2021/04/20 07:04:10;;;;;;;39.78;21.60;;;;;;;5.48;87.51;95561.22;5055926;28;20423;-68
2021/04/20 07:07:06;;;;;;;36.75;22.00;;;;;;;5.27;88.08;95560.88;5054821;28;20033;-68
2021/04/20 07:09:36;;;;;;;40.90;22.10;;;;;;;5.32;88.33;95557.56;5051689;28;20313;-68
2021/04/20 07:12:03;;;;;;;39.55;22.63;;;;;;;5.38;87.42;95556.63;5052276;28;20091;-68
2021/04/20 07:14:31;;;;;;;40.70;21.55;;;;;;;5.56;86.85;95555.63;5063073;28;20096;-68
2021/04/20 07:17:15;;;;;;;38.53;21.75;;;;;;;5.54;86.60;95560.28;5052194;28;20048;-67
2021/04/20 07:19:52;;;;;;;40.42;20.98;;;;;;;5.62;85.95;95551.28;5054848;28;20041;-67
2021/04/20 07:22:55;;;;;;;38.08;21.55;;;;;;;5.56;86.60;95553.03;5059575;28;20040;-67
2021/04/20 07:25:24;;;;;;;39.78;21.42;;;;;;;5.70;86.75;95554.31;5063746;28;20044;-69
2021/04/20 07:28:19;;;;;;;37.67;21.50;;;;;;;5.85;86.22;95550.34;5061115;28;20053;-67
2021/04/20 07:31:03;;;;;;;40.13;23.30;;;;;;;5.89;86.67;95551.44;5055894;28;20032;-70
2021/04/20 07:33:55;;;;;;;40.00;21.70;;;;;;;5.89;86.74;95556.69;5047809;28;20041;-69
2021/04/20 07:36:50;;;;;;;38.13;21.27;;;;;;;5.78;85.70;95557.53;5043604;28;20453;-69
2021/04/20 07:39:19;;;;;;;38.60;22.15;;;;;;;5.67;87.07;95559.19;5039354;28;20460;-68
2021/04/20 07:42:15;;;;;;;41.42;21.65;;;;;;;5.63;86.55;95564.09;5047820;28;20116;-71
2021/04/20 07:45:07;;;;;;;43.00;22.27;;;;;;;5.86;86.02;95560.56;5050656;28;20037;-67
2021/04/20 07:47:40;;;;;;;40.40;21.23;;;;;;;5.86;85.82;95557.13;5046389;28;20135;-67
2021/04/20 07:50:13;;;;;;;39.08;21.05;;;;;;;5.87;86.11;95558.72;5043954;28;20099;-71
2021/04/20 07:52:58;;;;;;;38.85;21.30;;;;;;;5.87;86.32;95558.72;5049666;28;20052;-67
2021/04/20 07:55:29;;;;;;;39.22;22.08;;;;;;;5.96;85.35;95559.91;5047885;28;20053;-68
2021/04/20 07:58:00;;;;;;;35.22;20.10;;;;;;;6.03;84.95;95557.97;5051078;28;20048;-68
2021/04/20 08:00:42;;;;;;;38.58;21.33;;;;;;;5.98;84.12;95555.25;5049475;28;20049;-68
2021/04/20 08:03:16;;;;;;;38.88;21.42;;;;;;;6.12;85.68;95557.53;5048669;28;20056;-69
2021/04/20 08:05:47;;;;;;;44.28;21.92;;;;;;;6.19;85.14;95555.56;5046257;28;20399;-68
2021/04/20 08:08:22;;;;;;;34.08;19.90;;;;;;;6.26;84.02;95556.19;5046831;28;20052;-67
2021/04/20 08:11:22;;;;;;;38.17;20.95;;;;;;;6.41;84.56;95564.22;5043438;28;20043;-70
2021/04/20 08:14:04;;;;;;;39.03;22.30;;;;;;;6.48;84.26;95558.03;5038182;28;20053;-69
2021/04/20 08:16:44;;;;;;;35.92;19.83;;;;;;;6.55;84.16;95558.66;5046977;28;20432;-67
2021/04/20 08:19:09;;;;;;;34.42;19.58;;;;;;;6.52;83.01;95559.94;5047830;28;20041;-68
2021/04/20 08:21:39;;;;;;;33.47;19.00;;;;;;;6.89;81.13;95558.53;5045764;28;20398;-67
2021/04/20 08:24:14;;;;;;;31.08;18.73;;;;;;;6.98;82.12;95557.06;5047261;28;20701;-67
2021/04/20 08:26:45;;;;;;;35.22;19.20;;;;;;;6.89;81.64;95558.53;5045337;28;20056;-69
2021/04/20 08:29:17;;;;;;;34.50;19.95;;;;;;;6.93;82.19;95555.19;5040257;28;20050;-67
2021/04/20 08:31:54;;;;;;;31.83;18.73;;;;;;;7.08;80.84;95551.16;5036027;28;20053;-67
2021/04/20 08:34:43;;;;;;;30.30;17.50;;;;;;;7.09;78.85;95552.75;5033582;28;20046;-66
2021/04/20 08:37:18;;;;;;;29.77;17.60;;;;;;;7.24;80.76;95557.34;5036883;28;20045;-67
2021/04/20 08:40:21;;;;;;;31.85;17.98;;;;;;;7.34;78.68;95560.06;5047729;28;20048;-66
2021/04/20 08:43:11;;;;;;;34.38;18.60;;;;;;;7.27;78.46;95559.47;5047875;28;20045;-67
2021/04/20 08:46:01;;;;;;;34.92;20.20;;;;;;;7.49;81.36;95561.25;5045142;28;20121;-66
2021/04/20 08:48:55;;;;;;;29.88;16.60;;;;;;;7.69;77.76;95561.44;5046337;28;20116;-67
2021/04/20 08:51:36;;;;;;;30.13;17.95;;;;;;;7.68;79.08;95559.84;5046752;28;20073;-67
2021/04/20 08:54:16;;;;;;;26.30;15.90;;;;;;;7.85;77.66;95548.47;5049956;28;20036;-67
2021/04/20 08:57:08;;;;;;;29.38;18.02;;;;;;;7.89;76.49;95549.53;5062607;28;20044;-66
2021/04/20 08:59:51;;;;;;;28.67;17.80;;;;;;;7.85;79.07;95548.47;5064321;28;20052;-66
2021/04/20 09:02:16;;;;;;;27.92;17.60;;;;;;;7.94;76.13;95546.94;5052255;28;20045;-66
2021/04/20 09:05:10;;;;;;;27.17;16.85;;;;;;;7.71;77.04;95548.84;5051487;28;20053;-67
2021/04/20 09:07:55;;;;;;;26.33;16.30;;;;;;;8.13;76.41;95549.94;5050940;28;20116;-66
2021/04/20 09:10:31;;;;;;;;;;;;;;;8.22;78.27;95552.91;5044271;28;20248;-68
2021/04/20 09:13:06;;;;;;;26.17;15.77;;;;;;;8.10;75.58;95556.50;5051783;28;19990;-66
2021/04/20 09:15:36;;;;;;;31.15;17.15;;;;;;;8.03;79.46;95545.44;5060861;28;20053;-70
2021/04/20 09:18:10;;;;;;;27.77;16.70;;;;;;;8.08;77.73;95552.56;5050022;28;20053;-67
2021/04/20 09:20:56;;;;;;;29.13;17.10;;;;;;;8.19;79.10;95558.63;5059962;28;20040;-67
2021/04/20 09:23:49;;;;;;;29.35;17.05;;;;;;;8.52;77.95;95554.13;5036389;28;20681;-67
2021/04/20 09:26:34;;;;;;;29.17;16.35;;;;;;;8.55;78.83;95556.25;5049852;28;20487;-66
2021/04/20 09:29:14;;;;;;;29.10;17.10;;;;;;;8.17;78.85;95539.75;5048872;28;20053;-68
2021/04/20 09:31:51;;;;;;;27.15;16.88;;;;;;;8.19;77.90;95550.78;5051028;28;20080;-67
2021/04/20 09:34:17;;;;;;;27.60;18.10;;;;;;;8.08;79.44;95548.09;5055178;28;20101;-66
2021/04/20 09:36:42;;;;;;;28.02;16.75;;;;;;;8.12;78.14;95549.16;5052655;28;20670;-66
2021/04/20 09:39:09;;;;;;;24.65;15.07;;;;;;;7.95;75.00;95544.06;5055301;28;20395;-67
2021/04/20 09:41:41;;;;;;;25.63;15.15;;;;;;;7.85;77.35;95543.22;5053226;28;20520;-66
2021/04/20 09:44:49;;;;;;;31.45;17.20;;;;;;;7.99;78.92;95549.63;5063663;28;20421;-66
2021/04/20 09:47:46;;;;;;;27.67;16.48;;;;;;;8.09;76.74;95549.69;5059413;28;20037;-67
2021/04/20 09:50:17;;;;;;;27.25;15.63;;;;;;;8.16;76.94;95549.47;5054351;28;20090;-66
2021/04/20 09:53:10;;;;;;;27.77;16.05;;;;;;;8.11;75.89;95547.59;5053609;28;20053;-67
2021/04/20 09:55:40;;;;;;;26.77;16.98;;;;;;;8.20;77.60;95547.13;5056641;28;20117;-68
2021/04/20 09:58:08;;;;;;;25.08;15.10;;;;;;;8.13;74.50;95545.50;5063400;28;20048;-68
2021/04/20 10:00:35;;;;;;;27.20;16.45;;;;;;;8.15;74.78;95546.03;5063810;28;20128;-66
2021/04/20 10:03:22;;;;;;;25.15;16.10;;;;;;;8.15;75.85;95548.66;5072971;28;20044;-66
2021/04/20 10:06:18;;;;;;;28.27;16.38;;;;;;;8.13;76.90;95545.50;5060118;28;20550;-67
2021/04/20 10:09:13;;;;;;;27.83;15.75;;;;;;;8.14;78.48;95552.31;5044798;28;20036;-66
2021/04/20 10:12:08;;;;;;;26.65;15.65;;;;;;;8.29;77.79;95553.47;5060645;28;20059;-68
2021/04/20 10:14:42;;;;;;;25.30;15.35;;;;;;;8.44;79.05;95550.16;5046156;28;20057;-68
2021/04/20 10:17:16;;;;;;;25.70;15.40;;;;;;;8.46;74.63;95553.31;5053829;28;20049;-66
2021/04/20 10:19:57;;;;;;;23.35;14.25;;;;;;;8.60;76.46;95549.19;5048990;28;20037;-66
2021/04/20 10:22:47;;;;;;;26.92;16.05;;;;;;;8.84;76.75;95549.56;5059906;28;20225;-66
2021/04/20 10:25:28;;;;;;;25.45;15.02;;;;;;;8.90;74.04;95544.34;5055746;28;20049;-68
2021/04/20 10:28:19;;;;;;;24.88;14.88;;;;;;;9.12;73.72;95542.31;5060821;28;20044;-66
2021/04/20 10:30:47;;;;;;;25.55;14.93;;;;;;;9.41;73.56;95541.84;5051881;28;20053;-67
2021/04/20 10:33:21;;;;;;;27.42;15.98;;;;;;;9.83;75.22;95540.81;5051309;28;20053;-67
2021/04/20 10:35:48;;;;;;;24.15;14.77;;;;;;;9.71;73.83;95535.03;5047006;28;20041;-68
2021/04/20 10:38:15;;;;;;;24.77;15.88;;;;;;;9.70;75.24;95536.09;5041550;28;20053;-67
2021/04/20 10:40:44;;;;;;;22.75;14.40;;;;;;;9.82;71.73;95531.34;5050171;28;20091;-67
2021/04/20 10:43:13;;;;;;;22.65;14.75;;;;;;;9.84;72.71;95531.88;5052000;28;20159;-68
2021/04/20 10:45:42;;;;;;;22.90;14.00;;;;;;;9.99;71.91;95530.31;5057974;28;20045;-68
2021/04/20 10:48:12;;;;;;;25.83;15.65;;;;;;;10.10;73.43;95521.34;5050564;28;20037;-67
2021/04/20 10:50:39;;;;;;;23.27;14.40;;;;;;;10.02;72.44;95524.50;5063771;28;20448;-66
2021/04/20 10:53:19;;;;;;;22.45;13.63;;;;;;;9.82;70.30;95526.09;5056138;28;20041;-66
2021/04/20 10:56:21;;;;;;;21.92;13.80;;;;;;;10.28;73.69;95532.34;5049850;28;20067;-68
2021/04/20 10:58:49;;;;;;;22.63;13.77;;;;;;;10.23;69.05;95531.31;5049040;28;20102;-67
2021/04/20 11:01:19;;;;;;;20.23;12.50;;;;;;;9.76;68.73;95521.91;5071249;28;20060;-67
2021/04/20 11:03:47;;;;;;;21.17;12.77;;;;;;;9.77;69.74;95528.75;5055825;28;20048;-67
2021/04/20 11:06:44;;;;;;;17.23;12.10;;;;;;;9.84;69.08;95528.44;5044846;28;20060;-65
2021/04/20 11:09:09;;;;;;;17.50;12.07;;;;;;;10.19;71.15;95519.75;5063142;28;20048;-65
2021/04/20 11:11:35;;;;;;;16.30;10.68;;;;;;;9.93;64.92;95520.81;5072361;28;20102;-62
2021/04/20 11:14:01;;;;;;;15.80;10.80;;;;;;;10.01;66.81;95512.41;5053318;28;20048;-65
2021/04/20 11:16:40;;;;;;;16.75;10.73;;;;;;;9.92;65.36;95519.28;5043945;28;20053;-67
2021/04/20 11:19:09;;;;;;;16.80;10.88;;;;;;;9.95;65.86;95518.72;5044004;28;20090;-71
2021/04/20 11:21:37;;;;;;;17.45;11.00;;;;;;;10.20;67.38;95515.25;5059411;28;20109;-69
2021/04/20 11:24:13;;;;;;;19.00;11.75;;;;;;;10.45;65.89;95511.03;5053782;28;20060;-69
2021/04/20 11:26:42;;;;;;;18.42;11.55;;;;;;;10.80;66.81;95510.09;5063630;28;20417;-68
2021/04/20 11:29:28;;;;;;;18.90;11.52;;;;;;;11.01;62.95;95512.66;5062626;28;20115;-68
2021/04/20 11:31:55;;;;;;;17.70;10.90;;;;;;;11.24;62.88;95511.97;5052408;28;20053;-65
2021/04/20 11:34:25;;;;;;;17.15;10.88;;;;;;;11.13;61.10;95505.19;5041825;28;20501;-68
2021/04/20 11:37:05;;;;;;;17.48;11.52;;;;;;;10.97;63.85;95506.34;5059324;28;20059;-68
2021/04/20 11:39:55;;;;;;;16.10;10.38;;;;;;;11.51;62.39;95505.50;5054178;28;20482;-68
2021/04/20 11:42:27;;;;;;;18.30;11.07;;;;;;;12.37;57.77;95504.22;5052890;28;20064;-67
2021/04/20 11:45:10;;;;;;;16.25;10.50;;;;;;;13.66;58.22;95496.22;5059011;28;20550;-67
2021/04/20 11:47:48;;;;;;;14.30;9.55;;;;;;;14.78;49.43;95501.66;5050857;28;20047;-66
2021/04/20 11:50:14;;;;;;;14.07;9.68;;;;;;;15.60;54.75;95489.28;5069259;28;20049;-66